Time;durP1;ratioP1;P1;durP2;ratioP2;P2;SDS_P1;SDS_P2;PMS_P1;PMS_P2;Temp;Humidity;BMP_temperature;BMP_pressure;BME280_temperature;BME280_humidity;BME280_pressure;Samples;Min_cycle;Max_cycle;Signal;HPM_P1;HPM_P2
2022/07/19 00:02:09;;;;;;;3.25;2.67;;;;;;;17.85;58.92;99717.59;1687360;83;21116;-75
2022/07/19 00:04:35;;;;;;;6.60;3.08;;;;;;;17.87;59.03;99714.98;1696772;83;20958;-74
2022/07/19 00:07:03;;;;;;;2.70;2.50;;;;;;;17.86;59.17;99709.29;1690541;83;20930;-74
2022/07/19 00:09:29;;;;;;;2.45;2.22;;;;;;;17.86;59.37;99715.19;1685388;83;21029;-74
2022/07/19 00:11:56;;;;;;;2.83;2.52;;;;;;;17.85;59.67;99713.55;1681721;83;20902;-74
2022/07/19 00:14:23;;;;;;;3.22;2.60;;;;;;;17.84;59.83;99715.41;1678112;83;21556;-74
2022/07/19 00:16:50;;;;;;;4.58;2.40;;;;;;;17.83;60.09;99716.43;1695273;83;21001;-74
2022/07/19 00:19:16;;;;;;;3.85;2.50;;;;;;;17.82;60.47;99708.07;1684434;83;20914;-74
2022/07/19 00:21:42;;;;;;;3.50;3.02;;;;;;;17.82;60.35;99714.80;1687395;83;20890;-74
2022/07/19 00:24:09;;;;;;;6.35;2.72;;;;;;;17.86;60.13;99708.45;1687453;83;21005;-74
2022/07/19 00:26:35;;;;;;;3.75;2.35;;;;;;;17.88;60.00;99701.82;1687365;83;21945;-75
2022/07/19 00:29:02;;;;;;;2.98;2.72;;;;;;;17.91;59.98;99707.30;1685615;83;21600;-74
2022/07/19 00:31:29;;;;;;;2.75;2.30;;;;;;;17.92;59.94;99709.48;1687406;83;21576;-74
2022/07/19 00:33:56;;;;;;;2.45;2.25;;;;;;;17.95;60.01;99708.55;1687284;83;20965;-74
2022/07/19 00:36:23;;;;;;;6.12;2.87;;;;;;;17.96;60.20;99706.17;1687415;83;20977;-75
2022/07/19 00:38:50;;;;;;;3.60;3.12;;;;;;;17.98;60.06;99711.33;1683814;83;21573;-75
2022/07/19 00:41:16;;;;;;;3.52;2.62;;;;;;;18.03;60.06;99703.44;1687194;83;20955;-75
2022/07/19 00:43:44;;;;;;;2.55;2.10;;;;;;;18.07;59.99;99703.34;1694619;83;20907;-74
2022/07/19 00:46:15;;;;;;;3.45;2.58;;;;;;;18.13;59.92;99706.50;1686645;83;20966;-74
2022/07/19 00:48:42;;;;;;;2.83;2.22;;;;;;;18.16;59.75;99708.78;1697900;83;20954;-74
2022/07/19 00:51:10;;;;;;;3.42;2.40;;;;;;;18.17;59.79;99698.33;1685659;83;21235;-75
2022/07/19 00:53:39;;;;;;;4.15;2.20;;;;;;;18.19;59.80;99703.80;1676849;83;20945;-74
2022/07/19 00:56:09;;;;;;;2.30;1.90;;;;;;;18.23;59.85;99699.62;1667773;84;20992;-74
2022/07/19 00:58:37;;;;;;;4.45;2.50;;;;;;;18.25;59.82;99702.13;1666356;84;20905;-75
2022/07/19 01:01:05;;;;;;;4.35;2.25;;;;;;;18.24;59.84;99695.08;1664422;84;20957;-74
2022/07/19 01:03:35;;;;;;;3.35;2.33;;;;;;;18.23;60.06;99692.89;1666167;84;21667;-75
2022/07/19 01:06:03;;;;;;;2.80;2.50;;;;;;;18.20;60.14;99691.97;1673191;84;20938;-75
2022/07/19 01:08:29;;;;;;;4.72;2.15;;;;;;;18.18;60.31;99695.92;1665805;84;20957;-74
2022/07/19 01:10:56;;;;;;;4.20;2.15;;;;;;;18.17;60.51;99693.74;1668006;84;21060;-75
2022/07/19 01:13:22;;;;;;;2.55;1.98;;;;;;;18.16;60.66;99689.41;1689307;84;21305;-74
2022/07/19 01:15:49;;;;;;;4.50;2.30;;;;;;;18.18;60.73;99690.53;1663922;84;21523;-74
2022/07/19 01:18:16;;;;;;;3.15;2.50;;;;;;;18.21;60.61;99682.86;1664445;84;20933;-75
2022/07/19 01:20:42;;;;;;;3.85;2.20;;;;;;;18.26;60.46;99680.35;1671051;84;20937;-74
2022/07/19 01:23:09;;;;;;;3.20;2.25;;;;;;;18.30;60.32;99680.77;1666482;84;21547;-74
2022/07/19 01:25:37;;;;;;;2.37;2.17;;;;;;;18.33;60.20;99685.17;1665383;84;21003;-75
2022/07/19 01:28:06;;;;;;;2.83;2.40;;;;;;;18.36;60.08;99681.23;1664040;84;21089;-75
2022/07/19 01:30:34;;;;;;;2.30;2.00;;;;;;;18.38;59.96;99679.17;1665171;84;20942;-75
2022/07/19 01:33:01;;;;;;;4.90;2.15;;;;;;;18.40;59.98;99688.69;1665517;84;20996;-75
2022/07/19 01:35:28;;;;;;;3.42;2.08;;;;;;;18.42;59.99;99686.59;1665305;84;21009;-74
2022/07/19 01:37:55;;;;;;;2.62;2.27;;;;;;;18.45;59.99;99688.86;1670861;84;21589;-75
2022/07/19 01:40:22;;;;;;;3.52;2.10;;;;;;;18.47;60.08;99692.19;1665379;84;21245;-74
2022/07/19 01:42:48;;;;;;;3.35;2.37;;;;;;;18.48;60.25;99693.02;1674487;84;21013;-74
2022/07/19 01:45:16;;;;;;;3.58;2.60;;;;;;;18.48;60.61;99703.25;1665518;84;20954;-75
2022/07/19 01:47:45;;;;;;;2.72;2.30;;;;;;;18.43;61.07;99700.89;1663656;84;21635;-75
2022/07/19 01:50:14;;;;;;;6.15;2.20;;;;;;;18.41;61.36;99705.13;1665354;84;21499;-75
2022/07/19 01:52:42;;;;;;;2.50;1.98;;;;;;;18.39;61.61;99709.08;1671385;84;21237;-74
2022/07/19 01:55:09;;;;;;;2.40;2.20;;;;;;;18.38;61.69;99702.86;1703157;83;21560;-75
2022/07/19 01:57:35;;;;;;;3.47;2.45;;;;;;;18.36;61.74;99707.64;1696304;83;20937;-75
2022/07/19 02:00:05;;;;;;;3.25;2.05;;;;;;;18.36;62.06;99709.50;1693383;83;20922;-75
2022/07/19 02:02:35;;;;;;;2.90;2.52;;;;;;;18.35;62.37;99709.22;1696124;83;21002;-75
2022/07/19 02:05:03;;;;;;;4.70;2.35;;;;;;;18.33;62.48;99705.89;1693911;83;21143;-75
2022/07/19 02:07:31;;;;;;;2.87;2.10;;;;;;;18.31;62.68;99711.50;1696422;83;20895;-75
2022/07/19 02:09:57;;;;;;;2.92;2.40;;;;;;;18.32;62.92;99719.06;1696304;83;20953;-75
2022/07/19 02:12:25;;;;;;;4.53;2.55;;;;;;;18.32;63.15;99710.48;1694945;83;21032;-76
2022/07/19 02:14:52;;;;;;;7.15;2.33;;;;;;;18.34;63.10;99713.77;1696154;83;21673;-74
2022/07/19 02:17:20;;;;;;;4.92;2.80;;;;;;;18.33;63.29;99709.41;1696306;83;21484;-75
2022/07/19 02:19:47;;;;;;;3.85;2.87;;;;;;;18.30;63.74;99711.19;1696269;83;21025;-75
2022/07/19 02:22:14;;;;;;;3.10;2.67;;;;;;;18.28;64.02;99709.23;1695440;83;20990;-75
2022/07/19 02:24:42;;;;;;;3.45;2.42;;;;;;;18.30;64.05;99711.19;1696388;83;21017;-74
2022/07/19 02:27:10;;;;;;;3.27;2.45;;;;;;;18.34;63.94;99710.25;1696227;83;21519;-74
2022/07/19 02:29:38;;;;;;;3.35;2.77;;;;;;;18.35;64.05;99709.22;1696373;83;21157;-74
2022/07/19 02:32:05;;;;;;;4.42;2.75;;;;;;;18.31;64.30;99707.47;1697599;83;20894;-75
2022/07/19 02:34:32;;;;;;;5.10;3.33;;;;;;;18.28;64.81;99717.31;1693368;83;21452;-75
2022/07/19 02:36:58;;;;;;;4.45;3.20;;;;;;;18.24;64.98;99713.92;1696403;83;20997;-75
2022/07/19 02:39:25;;;;;;;3.45;3.15;;;;;;;18.20;65.36;99712.17;1696310;83;21010;-75
2022/07/19 02:41:52;;;;;;;4.05;3.10;;;;;;;18.18;65.58;99712.91;1694310;83;21479;-75
2022/07/19 02:44:18;;;;;;;3.33;2.80;;;;;;;18.20;65.60;99714.86;1692400;83;20991;-74
2022/07/19 02:46:45;;;;;;;2.67;2.42;;;;;;;18.23;65.50;99713.61;1696282;83;20989;-75
2022/07/19 02:49:12;;;;;;;3.08;2.77;;;;;;;18.24;65.46;99717.45;1696278;83;20985;-76
2022/07/19 02:51:38;;;;;;;3.67;2.80;;;;;;;18.28;65.29;99720.00;1698858;83;21590;-74
2022/07/19 02:54:05;;;;;;;3.50;2.87;;;;;;;18.32;65.17;99714.52;1699505;83;22075;-75
2022/07/19 02:56:32;;;;;;;4.67;2.98;;;;;;;18.34;65.03;99721.02;1699681;83;20954;-75
2022/07/19 02:58:58;;;;;;;4.10;3.20;;;;;;;18.35;64.93;99714.61;1696249;83;21597;-74
2022/07/19 03:01:25;;;;;;;3.90;2.65;;;;;;;18.38;64.96;99715.53;1695413;83;21572;-76
2022/07/19 03:03:51;;;;;;;3.12;2.55;;;;;;;18.41;65.17;99713.73;1696101;83;20983;-75
2022/07/19 03:06:18;;;;;;;2.80;2.37;;;;;;;18.43;65.50;99709.77;1696399;83;21236;-74
2022/07/19 03:08:46;;;;;;;3.37;3.10;;;;;;;18.47;65.69;99711.05;1696228;83;21464;-74
2022/07/19 03:11:14;;;;;;;4.70;3.77;;;;;;;18.49;65.71;99710.30;1703374;83;20933;-75
2022/07/19 03:13:41;;;;;;;3.85;3.22;;;;;;;18.52;65.78;99712.25;1696215;83;20988;-75
2022/07/19 03:16:07;;;;;;;6.28;5.37;;;;;;;18.52;66.02;99718.98;1708130;83;21009;-74
2022/07/19 03:18:34;;;;;;;5.62;5.22;;;;;;;18.50;66.09;99716.52;1703758;83;21786;-74
2022/07/19 03:21:00;;;;;;;5.97;4.62;;;;;;;18.49;65.96;99708.95;1695456;83;21524;-74
2022/07/19 03:23:34;;;;;;;4.92;3.50;;;;;;;18.53;65.89;99716.61;1711980;83;20986;-76
2022/07/19 03:26:01;;;;;;;3.72;3.22;;;;;;;18.57;65.79;99713.77;1696394;83;21045;-75
2022/07/19 03:28:27;;;;;;;4.20;3.45;;;;;;;18.60;65.75;99716.88;1696394;83;21562;-75
2022/07/19 03:30:55;;;;;;;3.40;3.10;;;;;;;18.61;65.81;99719.05;1699418;83;21281;-75
2022/07/19 03:33:21;;;;;;;6.00;3.72;;;;;;;18.63;66.00;99721.00;1696337;83;21473;-75
2022/07/19 03:35:49;;;;;;;4.03;3.37;;;;;;;18.64;66.11;99719.98;1696150;83;21519;-74
2022/07/19 03:38:16;;;;;;;2.90;2.67;;;;;;;18.67;66.13;99723.56;1696439;83;21445;-74
2022/07/19 03:40:47;;;;;;;5.35;3.05;;;;;;;18.67;66.16;99720.34;1714058;83;21571;-74
2022/07/19 03:43:15;;;;;;;3.52;2.42;;;;;;;18.70;66.08;99723.12;1667055;84;21262;-74
2022/07/19 03:45:43;;;;;;;2.85;2.65;;;;;;;18.69;65.85;99718.28;1647694;85;21469;-74
2022/07/19 03:48:11;;;;;;;3.80;2.40;;;;;;;18.68;65.73;99722.53;1656185;84;20977;-74
2022/07/19 03:50:38;;;;;;;3.50;2.80;;;;;;;18.69;65.67;99725.54;1667255;84;21032;-74
2022/07/19 03:53:04;;;;;;;2.52;2.33;;;;;;;18.70;65.71;99726.66;1640778;86;20990;-74
2022/07/19 03:55:31;;;;;;;5.17;2.20;;;;;;;18.71;65.78;99730.19;1672448;85;21245;-74
2022/07/19 03:57:58;;;;;;;3.77;2.85;;;;;;;18.72;65.77;99729.95;1663085;85;20925;-74
2022/07/19 04:00:25;;;;;;;2.90;2.60;;;;;;;18.73;65.71;99727.58;1662006;85;21027;-75
2022/07/19 04:02:51;;;;;;;3.70;2.15;;;;;;;18.72;65.53;99730.50;1663094;85;21009;-75
2022/07/19 04:05:18;;;;;;;4.55;2.58;;;;;;;18.72;65.52;99731.30;1663133;85;21048;-74
2022/07/19 04:07:44;;;;;;;3.08;2.33;;;;;;;18.72;65.50;99724.56;1663146;85;21133;-74
2022/07/19 04:10:11;;;;;;;4.42;2.45;;;;;;;18.75;65.47;99729.53;1663452;85;21491;-74
2022/07/19 04:12:38;;;;;;;3.52;2.58;;;;;;;18.77;65.37;99732.02;1672516;85;20973;-74
2022/07/19 04:15:07;;;;;;;2.20;2.00;;;;;;;18.78;65.38;99736.35;1663083;85;20961;-74
2022/07/19 04:17:35;;;;;;;3.30;2.45;;;;;;;18.80;65.21;99731.56;1655397;85;21023;-74
2022/07/19 04:20:02;;;;;;;2.92;2.67;;;;;;;18.80;65.11;99733.74;1663622;85;21550;-74
2022/07/19 04:22:30;;;;;;;3.92;2.72;;;;;;;18.81;65.07;99733.23;1669707;85;21066;-74
2022/07/19 04:24:56;;;;;;;5.58;2.70;;;;;;;18.82;65.11;99733.55;1663224;85;20953;-74
2022/07/19 04:27:23;;;;;;;4.92;2.87;;;;;;;18.83;65.06;99730.62;1663154;85;20981;-74
2022/07/19 04:29:50;;;;;;;4.37;2.98;;;;;;;18.84;65.04;99730.10;1664744;85;21013;-74
2022/07/19 04:32:16;;;;;;;4.78;3.10;;;;;;;18.84;64.92;99727.41;1663942;85;21158;-74
2022/07/19 04:34:42;;;;;;;4.97;2.62;;;;;;;18.83;64.80;99725.23;1679662;85;21401;-74
2022/07/19 04:37:09;;;;;;;3.22;2.75;;;;;;;18.81;64.74;99718.41;1664231;85;21029;-74
2022/07/19 04:39:35;;;;;;;2.92;2.60;;;;;;;18.78;64.81;99717.48;1667656;85;21022;-74
2022/07/19 04:42:02;;;;;;;4.97;2.80;;;;;;;18.76;64.98;99715.02;1661250;85;21026;-74
2022/07/19 04:44:29;;;;;;;3.80;2.75;;;;;;;18.76;65.00;99719.06;1696953;83;21195;-74
2022/07/19 04:46:55;;;;;;;6.37;3.17;;;;;;;18.79;64.96;99717.80;1705996;83;21017;-74
2022/07/19 04:49:22;;;;;;;4.25;2.52;;;;;;;18.82;64.82;99714.67;1696901;83;20950;-74
2022/07/19 04:51:48;;;;;;;3.70;2.83;;;;;;;18.84;64.75;99705.84;1702523;83;21097;-73
2022/07/19 04:54:15;;;;;;;5.65;2.70;;;;;;;18.87;64.69;99714.84;1701848;82;21072;-74
2022/07/19 04:56:42;;;;;;;5.42;2.85;;;;;;;18.89;64.58;99707.36;1700504;82;21261;-74
2022/07/19 04:59:09;;;;;;;2.90;2.58;;;;;;;18.93;64.54;99699.95;1703475;82;20906;-74
2022/07/19 05:01:35;;;;;;;3.85;2.62;;;;;;;19.00;64.48;99704.80;1708448;82;20911;-69
2022/07/19 05:04:02;;;;;;;4.72;3.00;;;;;;;19.07;64.31;99710.13;1702396;82;21025;-71
2022/07/19 05:06:28;;;;;;;5.25;2.90;;;;;;;19.15;64.12;99710.38;1703335;82;21065;-73
2022/07/19 05:08:56;;;;;;;4.75;2.60;;;;;;;19.22;63.91;99707.92;1701161;82;21221;-75
2022/07/19 05:11:23;;;;;;;8.58;2.70;;;;;;;19.32;63.79;99709.59;1703139;82;21452;-76
2022/07/19 05:13:51;;;;;;;6.60;2.55;;;;;;;19.40;63.53;99713.39;1700521;82;21044;-73
2022/07/19 05:16:19;;;;;;;2.87;2.35;;;;;;;19.47;63.54;99716.05;1705031;82;21105;-72
2022/07/19 05:18:47;;;;;;;2.72;2.42;;;;;;;19.54;63.55;99711.41;1717820;82;21538;-75
2022/07/19 05:21:14;;;;;;;4.05;2.30;;;;;;;19.61;63.36;99712.16;1728932;82;21239;-74
2022/07/19 05:23:41;;;;;;;5.15;2.55;;;;;;;19.71;63.19;99713.81;1711196;82;20981;-72
2022/07/19 05:26:09;;;;;;;5.33;2.58;;;;;;;19.80;62.74;99714.36;1718968;82;20998;-73
2022/07/19 05:28:35;;;;;;;4.97;2.80;;;;;;;19.85;62.36;99704.55;1710690;82;21027;-73
2022/07/19 05:31:04;;;;;;;3.98;2.33;;;;;;;19.91;62.13;99708.22;1720052;82;21452;-73
2022/07/19 05:33:31;;;;;;;4.28;2.85;;;;;;;19.94;61.90;99707.78;1706447;82;21504;-74
2022/07/19 05:35:58;;;;;;;2.98;2.58;;;;;;;19.96;61.75;99708.38;1725373;82;20953;-73
2022/07/19 05:38:24;;;;;;;4.50;2.42;;;;;;;19.98;61.64;99709.80;1710901;82;21643;-73
2022/07/19 05:40:51;;;;;;;3.62;2.15;;;;;;;19.98;61.50;99707.09;1717508;82;21519;-74
2022/07/19 05:43:17;;;;;;;5.78;2.30;;;;;;;19.98;61.53;99711.66;1710618;82;21080;-72
2022/07/19 05:45:44;;;;;;;4.15;2.35;;;;;;;19.96;61.69;99713.25;1729971;82;21779;-73
2022/07/19 05:48:12;;;;;;;5.03;2.85;;;;;;;19.96;61.67;99713.25;1728448;82;20937;-73
2022/07/19 05:50:38;;;;;;;5.47;3.00;;;;;;;19.95;61.79;99716.16;1718955;82;21033;-74
2022/07/19 05:53:05;;;;;;;6.30;3.50;;;;;;;19.95;61.88;99714.81;1716412;82;20992;-74
2022/07/19 05:55:32;;;;;;;7.28;2.87;;;;;;;19.95;62.04;99714.29;1683035;82;20960;-74
2022/07/19 05:57:59;;;;;;;4.08;2.92;;;;;;;19.95;62.12;99716.98;1683104;84;21825;-74
2022/07/19 06:00:26;;;;;;;5.05;3.47;;;;;;;19.93;62.16;99712.34;1685970;84;21031;-73
2022/07/19 06:02:52;;;;;;;8.08;3.45;;;;;;;19.93;62.24;99714.22;1669482;84;20933;-73
2022/07/19 06:05:20;;;;;;;3.65;3.20;;;;;;;19.94;62.36;99717.23;1667304;84;20961;-75
2022/07/19 06:07:47;;;;;;;7.08;3.98;;;;;;;19.94;62.44;99715.36;1676209;84;21077;-74
2022/07/19 06:10:14;;;;;;;8.15;4.05;;;;;;;19.95;62.47;99715.64;1672490;84;21766;-76
2022/07/19 06:12:40;;;;;;;6.53;4.30;;;;;;;19.99;62.46;99718.73;1667439;84;21451;-77
2022/07/19 06:15:09;;;;;;;12.10;5.37;;;;;;;20.00;62.57;99724.41;1667439;84;21515;-76
2022/07/19 06:17:37;;;;;;;6.00;4.42;;;;;;;20.01;62.62;99723.38;1667531;84;21020;-76
2022/07/19 06:20:08;;;;;;;6.70;4.60;;;;;;;20.02;62.69;99723.68;1667408;84;20997;-75
2022/07/19 06:22:34;;;;;;;5.45;4.40;;;;;;;20.05;62.78;99726.73;1670571;84;21785;-76
2022/07/19 06:25:01;;;;;;;6.33;4.67;;;;;;;20.08;63.06;99720.05;1667467;84;21511;-76
2022/07/19 06:27:27;;;;;;;5.80;4.50;;;;;;;20.15;63.00;99727.03;1667451;84;21059;-75
2022/07/19 06:29:54;;;;;;;5.15;4.05;;;;;;;20.26;63.03;99726.83;1667515;84;20981;-75
2022/07/19 06:32:21;;;;;;;6.60;3.65;;;;;;;20.36;62.99;99728.49;1667477;84;20995;-75
2022/07/19 06:34:49;;;;;;;4.78;3.22;;;;;;;20.45;62.72;99719.01;1678581;84;20997;-75
2022/07/19 06:37:16;;;;;;;7.08;3.42;;;;;;;20.54;62.45;99721.70;1674826;84;20897;-76
2022/07/19 06:39:42;;;;;;;3.60;2.70;;;;;;;20.60;61.88;99722.12;1667514;84;20961;-76
2022/07/19 06:42:08;;;;;;;4.58;2.40;;;;;;;20.73;61.73;99723.28;1667409;84;20961;-77
2022/07/19 06:44:35;;;;;;;6.50;2.58;;;;;;;20.85;61.56;99723.34;1667548;84;20921;-76
2022/07/19 06:47:01;;;;;;;3.35;2.35;;;;;;;20.99;61.30;99724.77;1667573;84;21181;-76
2022/07/19 06:49:28;;;;;;;11.03;3.33;;;;;;;21.09;60.71;99724.26;1667496;84;20944;-77
2022/07/19 06:51:55;;;;;;;5.72;2.87;;;;;;;21.22;60.28;99715.92;1670053;84;20925;-75
2022/07/19 06:54:21;;;;;;;3.50;2.67;;;;;;;21.38;59.99;99720.10;1667467;84;20989;-75
2022/07/19 06:56:48;;;;;;;8.00;2.83;;;;;;;21.57;59.40;99718.11;1695573;83;21531;-76
2022/07/19 06:59:15;;;;;;;5.12;3.08;;;;;;;21.71;58.87;99728.18;1687012;83;21426;-76
2022/07/19 07:01:41;;;;;;;5.78;3.20;;;;;;;21.80;58.37;99717.27;1696417;83;21002;-76
2022/07/19 07:04:09;;;;;;;5.05;3.17;;;;;;;21.82;58.04;99720.59;1713202;83;20990;-77
2022/07/19 07:06:36;;;;;;;3.87;2.58;;;;;;;21.80;57.75;99721.33;1704374;83;21014;-76
2022/07/19 07:09:04;;;;;;;5.00;2.75;;;;;;;21.75;57.47;99729.34;1724188;83;20922;-76
2022/07/19 07:11:31;;;;;;;8.98;2.90;;;;;;;21.74;57.52;99723.66;1706357;82;22139;-77
2022/07/19 07:13:58;;;;;;;2.33;2.00;;;;;;;21.72;57.79;99723.07;1696162;83;21009;-77
2022/07/19 07:16:27;;;;;;;2.77;2.20;;;;;;;21.71;57.29;99716.00;1696298;83;20903;-76
2022/07/19 07:18:53;;;;;;;2.85;2.33;;;;;;;21.69;57.27;99722.19;1696308;83;20966;-76
2022/07/19 07:21:20;;;;;;;5.00;2.42;;;;;;;21.70;57.44;99715.69;1696382;83;20942;-76
2022/07/19 07:23:46;;;;;;;3.92;2.25;;;;;;;21.73;57.63;99716.05;1699563;83;21804;-77
2022/07/19 07:26:13;;;;;;;3.00;2.05;;;;;;;21.76;57.84;99710.17;1696175;83;21504;-77
2022/07/19 07:28:39;;;;;;;2.42;2.22;;;;;;;21.78;58.06;99712.10;1696374;83;20994;-75
2022/07/19 07:31:06;;;;;;;5.35;2.17;;;;;;;21.84;57.69;99711.17;1696340;83;20934;-76
2022/07/19 07:33:33;;;;;;;2.33;2.12;;;;;;;21.86;57.35;99721.25;1696377;83;20934;-76
2022/07/19 07:36:00;;;;;;;2.75;2.47;;;;;;;21.85;57.31;99726.33;1696129;83;21151;-77
2022/07/19 07:38:26;;;;;;;3.58;2.98;;;;;;;21.83;57.40;99727.11;1696169;83;20942;-77
2022/07/19 07:40:53;;;;;;;3.67;2.20;;;;;;;21.81;57.69;99730.59;1696150;83;20960;-76
2022/07/19 07:43:19;;;;;;;6.28;2.70;;;;;;;21.85;58.06;99729.56;1696340;83;20946;-76
2022/07/19 07:45:45;;;;;;;3.72;2.35;;;;;;;21.86;58.05;99728.02;1696311;83;20933;-76
2022/07/19 07:48:13;;;;;;;4.83;3.17;;;;;;;21.83;58.23;99727.11;1696206;83;21014;-76
2022/07/19 07:50:40;;;;;;;5.25;2.60;;;;;;;21.85;58.23;99715.50;1696205;83;20903;-76
2022/07/19 07:53:06;;;;;;;5.90;2.62;;;;;;;21.87;57.64;99702.60;1698528;83;20953;-76
2022/07/19 07:55:38;;;;;;;10.20;2.85;;;;;;;21.84;57.20;99711.17;1696217;83;20883;-77
2022/07/19 07:58:01;;;;;;;6.05;2.87;;;;;;;21.89;57.10;99716.72;1696108;83;21512;-75
2022/07/19 08:00:28;;;;;;;5.20;2.72;;;;;;;21.89;57.10;99716.72;1696265;83;21138;-75
2022/07/19 08:02:54;;;;;;;7.75;3.47;;;;;;;21.97;57.42;99709.59;1696224;83;21010;-76
2022/07/19 08:05:24;;;;;;;4.78;2.67;;;;;;;22.23;56.73;99708.75;1696359;83;21575;-76
2022/07/19 08:07:50;;;;;;;7.72;2.87;;;;;;;22.23;56.73;99708.75;1696256;83;21539;-77
2022/07/19 08:10:19;;;;;;;6.00;2.85;;;;;;;22.36;56.86;99711.19;1696264;83;20974;-77
2022/07/19 08:12:45;;;;;;;3.25;2.72;;;;;;;22.64;55.96;99713.41;1696203;83;21057;-77
2022/07/19 08:15:12;;;;;;;4.55;3.15;;;;;;;22.64;55.96;99713.41;1699343;83;20983;-76
2022/07/19 08:17:38;;;;;;;5.08;3.00;;;;;;;22.77;55.70;99712.28;1696363;83;21076;-75
2022/07/19 08:20:08;;;;;;;5.33;2.98;;;;;;;22.80;55.17;99710.44;1696523;83;21075;-76
2022/07/19 08:22:34;;;;;;;7.90;2.60;;;;;;;22.81;54.66;99712.63;1704090;83;21520;-75
2022/07/19 08:25:01;;;;;;;4.53;2.50;;;;;;;22.84;54.63;99705.36;1708095;83;21782;-76
2022/07/19 08:27:29;;;;;;;5.37;3.15;;;;;;;22.88;54.70;99705.98;1696362;83;21048;-76
2022/07/19 08:29:55;;;;;;;4.45;3.25;;;;;;;22.95;54.68;99713.41;1696371;83;20890;-76
2022/07/19 08:32:22;;;;;;;6.70;3.30;;;;;;;23.07;55.05;99715.52;1696367;83;21519;-76
2022/07/19 08:34:48;;;;;;;4.78;3.33;;;;;;;23.20;54.71;99704.34;1696445;83;20996;-76
2022/07/19 08:37:15;;;;;;;3.77;3.02;;;;;;;23.26;53.91;99702.00;1696462;83;21537;-76
2022/07/19 08:39:42;;;;;;;4.55;3.10;;;;;;;23.30;53.79;99707.77;1696340;83;21050;-76
2022/07/19 08:42:09;;;;;;;4.87;3.90;;;;;;;23.37;54.17;99707.62;1696545;83;21029;-76
2022/07/19 08:44:38;;;;;;;4.65;3.75;;;;;;;23.47;54.03;99703.70;1696367;83;20982;-76
2022/07/19 08:47:05;;;;;;;4.50;3.55;;;;;;;23.58;53.56;99705.51;1709133;83;20899;-76
2022/07/19 08:49:32;;;;;;;5.97;3.77;;;;;;;23.66;52.93;99702.38;1724193;83;21100;-76
2022/07/19 08:51:59;;;;;;;5.95;3.87;;;;;;;23.60;52.69;99699.28;1722453;82;21496;-76
2022/07/19 08:54:25;;;;;;;6.87;4.33;;;;;;;23.61;52.59;99696.87;1719975;83;20991;-76
2022/07/19 08:59:37;;;;;;;7.90;4.92;;;;;;;23.60;52.54;99700.11;1694627;84;20941;-76
2022/07/19 09:02:04;;;;;;;10.15;5.25;;;;;;;23.59;52.60;99699.84;1675339;84;21510;-76
2022/07/19 09:04:30;;;;;;;7.75;5.22;;;;;;;23.55;52.77;99698.69;1681874;84;20957;-76
2022/07/19 09:06:58;;;;;;;8.15;4.78;;;;;;;23.56;52.77;99696.80;1668277;84;21076;-76
2022/07/19 09:09:29;;;;;;;7.85;4.12;;;;;;;23.57;52.80;99707.95;1667612;84;20917;-76
2022/07/19 09:11:59;;;;;;;4.87;3.58;;;;;;;23.51;52.82;99707.05;1668390;84;20898;-76
2022/07/19 09:14:29;;;;;;;8.55;3.70;;;;;;;23.44;53.02;99707.73;1679370;84;21101;-76
2022/07/19 09:17:06;;;;;;;9.78;3.95;;;;;;;23.39;53.16;99707.66;1667506;84;20885;-78
2022/07/19 09:19:41;;;;;;;8.55;3.80;;;;;;;23.37;53.44;99708.98;1667623;84;21488;-75
2022/07/19 09:22:10;;;;;;;6.37;3.58;;;;;;;23.38;53.45;99711.99;1669944;84;20993;-77
2022/07/19 09:24:41;;;;;;;12.18;6.37;;;;;;;23.38;53.33;99712.83;1683590;84;35963;-76
2022/07/19 09:27:16;;;;;;;7.05;4.08;;;;;;;23.39;53.46;99710.94;1668009;84;21211;-75
2022/07/19 09:29:45;;;;;;;5.47;3.20;;;;;;;23.41;53.35;99714.22;1668090;84;20862;-77
2022/07/19 09:32:16;;;;;;;8.23;3.25;;;;;;;23.41;53.64;99712.86;1667704;84;20996;-76
2022/07/19 09:34:56;;;;;;;6.47;3.00;;;;;;;23.41;54.15;99712.86;1667451;84;20937;-76
2022/07/19 09:37:30;;;;;;;4.08;2.98;;;;;;;23.41;53.96;99707.44;1671588;84;20906;-76
2022/07/19 09:40:04;;;;;;;3.75;2.87;;;;;;;23.42;54.13;99703.09;1667473;84;21150;-76
2022/07/19 09:42:37;;;;;;;3.02;2.47;;;;;;;23.50;54.12;99699.97;1667151;84;20917;-76
2022/07/19 09:45:10;;;;;;;2.62;2.27;;;;;;;23.71;53.95;99701.08;1667608;84;20937;-76
2022/07/19 09:47:42;;;;;;;3.00;2.70;;;;;;;23.98;53.18;99701.19;1661657;84;20982;-76
2022/07/19 09:50:14;;;;;;;5.55;2.80;;;;;;;24.24;52.12;99696.39;1667558;84;21009;-75
2022/07/19 09:52:40;;;;;;;3.17;2.62;;;;;;;24.49;51.55;99693.95;1668467;84;21243;-76
2022/07/19 09:55:08;;;;;;;6.35;2.80;;;;;;;24.82;50.24;99688.90;1677199;84;20925;-76
2022/07/19 09:57:40;;;;;;;3.27;2.95;;;;;;;25.14;49.46;99680.19;1674062;81;20966;-76
2022/07/19 10:00:08;;;;;;;3.20;2.75;;;;;;;25.41;48.83;99686.94;1658430;84;20893;-76
2022/07/19 10:02:37;;;;;;;3.60;2.95;;;;;;;25.62;48.07;99677.31;1665457;84;20866;-75
2022/07/19 10:05:05;;;;;;;3.35;2.72;;;;;;;25.78;47.54;99679.58;1665351;84;21844;-76
2022/07/19 10:07:34;;;;;;;5.25;3.12;;;;;;;25.92;47.44;99680.72;1665322;84;20949;-76
2022/07/19 10:10:06;;;;;;;3.92;2.42;;;;;;;26.05;46.73;99675.33;1665314;84;20968;-75
2022/07/19 10:12:34;;;;;;;5.35;2.70;;;;;;;26.14;46.40;99681.42;1665416;84;20953;-75
2022/07/19 10:15:00;;;;;;;2.67;2.42;;;;;;;26.24;46.81;99686.91;1665315;84;21001;-76
2022/07/19 10:17:32;;;;;;;5.80;2.92;;;;;;;26.36;46.17;99690.75;1665283;84;22015;-76
2022/07/19 10:19:59;;;;;;;4.05;2.37;;;;;;;26.46;46.16;99685.89;1665261;84;21003;-76
2022/07/19 10:22:26;;;;;;;11.70;3.12;;;;;;;26.57;45.46;99689.72;1668280;84;21463;-76
2022/07/19 10:24:56;;;;;;;3.00;2.70;;;;;;;26.75;45.14;99686.48;1665582;84;21519;-76
2022/07/19 10:27:31;;;;;;;6.72;3.20;;;;;;;26.93;44.48;99681.89;1673832;84;20989;-78
2022/07/19 10:30:14;;;;;;;5.62;3.20;;;;;;;27.12;44.00;99683.55;1679489;84;21577;-76
2022/07/19 10:32:43;;;;;;;6.50;2.42;;;;;;;27.32;43.48;99690.35;1666621;84;20993;-77
2022/07/19 10:35:29;;;;;;;5.62;2.02;;;;;;;27.43;42.88;99685.73;1665322;84;20945;-77
2022/07/19 10:38:04;;;;;;;3.77;2.45;;;;;;;27.59;42.43;99677.79;1665288;84;21423;-77
2022/07/19 10:40:51;;;;;;;3.10;2.30;;;;;;;27.74;42.08;99681.84;1664387;84;21004;-77
2022/07/19 10:43:20;;;;;;;2.83;2.20;;;;;;;27.87;41.78;99678.53;1677896;84;21141;-76
2022/07/19 10:46:02;;;;;;;4.15;2.10;;;;;;;27.98;41.01;99671.94;1665232;84;20897;-76
2022/07/19 10:48:49;;;;;;;2.10;1.90;;;;;;;28.08;40.53;99671.10;1665345;84;21553;-77
2022/07/19 10:51:33;;;;;;;3.05;2.50;;;;;;;28.11;40.37;99676.02;1665276;84;20964;-76
2022/07/19 10:54:06;;;;;;;3.90;2.47;;;;;;;28.12;40.21;99664.81;1672945;84;20905;-78
2022/07/19 10:56:37;;;;;;;2.95;2.33;;;;;;;28.07;40.15;99663.47;1676090;83;21762;-77
2022/07/19 10:59:07;;;;;;;2.87;2.37;;;;;;;28.00;40.30;99660.73;1686786;83;20911;-77
2022/07/19 11:01:36;;;;;;;2.52;2.12;;;;;;;28.05;39.81;99655.28;1694424;83;20963;-74
2022/07/19 11:04:23;;;;;;;3.62;2.12;;;;;;;28.07;39.53;99653.08;1705561;83;21528;-74
2022/07/19 11:06:51;;;;;;;3.35;2.37;;;;;;;28.06;39.28;99656.36;1701790;83;21295;-77
2022/07/19 11:09:18;;;;;;;4.17;2.17;;;;;;;28.07;39.40;99659.91;1696274;83;21161;-75
2022/07/19 11:11:44;;;;;;;2.98;2.30;;;;;;;28.09;39.60;99659.08;1696143;83;22510;-75
2022/07/19 11:14:12;;;;;;;2.62;2.40;;;;;;;28.06;39.95;99656.90;1696331;83;21182;-76
2022/07/19 11:16:39;;;;;;;4.47;2.20;;;;;;;28.15;40.14;99656.59;1696273;83;20942;-78
2022/07/19 11:19:08;;;;;;;5.08;2.33;;;;;;;28.24;39.89;99654.08;1698776;83;20855;-76
2022/07/19 11:21:36;;;;;;;6.12;2.65;;;;;;;28.36;40.13;99656.77;1696310;83;21153;-78
2022/07/19 11:24:04;;;;;;;3.50;2.12;;;;;;;28.53;40.15;99660.48;1699580;83;21561;-77
2022/07/19 11:26:36;;;;;;;4.55;2.25;;;;;;;28.56;39.72;99664.84;1696292;83;20950;-77
2022/07/19 11:29:03;;;;;;;6.08;2.62;;;;;;;28.41;39.28;99665.48;1696260;83;20988;-76
2022/07/19 11:31:30;;;;;;;2.45;2.00;;;;;;;28.26;39.60;99662.30;1696244;83;21579;-75
2022/07/19 11:33:57;;;;;;;2.47;2.02;;;;;;;28.24;39.85;99660.91;1696162;83;21275;-77
2022/07/19 11:36:24;;;;;;;4.70;2.87;;;;;;;28.19;39.99;99664.50;1696324;83;21013;-77
2022/07/19 11:38:55;;;;;;;5.28;2.80;;;;;;;28.02;40.15;99659.39;1696191;83;21646;-75
2022/07/19 11:41:25;;;;;;;5.35;2.37;;;;;;;27.83;40.87;99663.80;1691165;83;21535;-75